Pray, Montana
Current Conditions -  °F | °C
As of 7:53 AM on Thursday 30 Oct 2014 (Local Time) from KLVM Reporting Station
Clear Clear  
Wind Chill: 29°   Ceiling: Unl
Heat Index: 35°   Visibility: 10mi
Dew Point: 27°   Wind: 7mph
Humidity: 72%   Direction: 320°NW
Pressure: 30.28"   Gusts: NA
Location:  45.38°N, 110.68°W
Report Text: KLVM 301353Z AUTO 32006KT 10SM CLR 02/M03 A3028 RMK AO2 SLP263 T00171028
Loading
Personal Weather Stations






























Interactive Weather Map
Tropical Storm Tracking
New forecast layout! Learn more

10-Day Weather Forecast

Advertisements
Track Severe Weather on mobile